Time;durP1;ratioP1;P1;durP2;ratioP2;P2;SDS_P1;SDS_P2;PMS_P1;PMS_P2;Temp;Humidity;BMP_temperature;BMP_pressure;BME280_temperature;BME280_humidity;BME280_pressure;Samples;Min_cycle;Max_cycle;Signal;HPM_P1;HPM_P2
2020/12/01 00:00:19;;;;;;;1.92;1.77;;;;;;;0.05;4.23;-4976800.00;5078799;28;20050;-83
2020/12/01 00:02:45;;;;;;;1.10;1.10;;;;;;;0.05;4.24;-4945595.00;5078593;28;20028;-82
2020/12/01 00:05:14;;;;;;;0.57;0.57;;;;;;;0.05;4.24;-4867581.50;5078172;28;20031;-80
2020/12/01 00:07:40;;;;;;;1.48;1.38;;;;;;;0.05;4.24;-4867581.50;5078241;28;20381;-81
2020/12/01 00:10:08;;;;;;;3.42;2.72;;;;;;;0.05;4.24;-4851978.50;5077969;28;20035;-81
2020/12/01 00:12:34;;;;;;;1.98;1.88;;;;;;;0.05;4.24;-4805169.50;5078118;28;20024;-81
2020/12/01 00:15:00;;;;;;;0.50;0.50;;;;;;;0.05;4.24;-4758360.00;5078013;28;20032;-83
2020/12/01 00:17:25;;;;;;;1.45;1.45;;;;;;;0.05;4.25;-4649134.00;5078064;28;20042;-83
2020/12/01 00:19:51;;;;;;;0.60;0.60;;;;;;;0.05;4.25;-4664738.00;5078252;28;20493;-79
2020/12/01 00:22:18;;;;;;;0.65;0.65;;;;;;;0.05;4.25;-4633530.00;5077794;28;20028;-82
2020/12/01 00:24:43;;;;;;;0.40;0.40;;;;;;;0.05;4.25;-4586717.50;5078426;28;20511;-82
2020/12/01 00:27:09;;;;;;;1.92;1.75;;;;;;;0.05;4.25;-4461881.00;5077680;28;20024;-82
2020/12/01 00:29:34;;;;;;;0.60;0.60;;;;;;;0.05;4.25;-4461881.00;5077696;28;20572;-79
2020/12/01 00:32:00;;;;;;;2.05;1.95;;;;;;;0.05;4.26;-4461881.00;5078302;28;20024;-83
2020/12/01 00:34:25;;;;;;;0.95;0.95;;;;;;;0.05;4.26;-4461881.00;5077717;28;20507;-81
2020/12/01 00:36:51;;;;;;;5.63;3.00;;;;;;;0.05;4.25;-4555509.00;5078036;28;20024;-82
2020/12/01 00:39:16;;;;;;;0.40;0.40;;;;;;;0.05;4.25;-4508695.50;5077577;28;20031;-82
2020/12/01 00:41:42;;;;;;;0.40;0.40;;;;;;;0.05;4.25;-4493090.50;5077617;28;20035;-82
2020/12/01 00:44:07;;;;;;;1.10;1.10;;;;;;;0.05;4.25;-4477486.00;5077188;28;20088;-82
2020/12/01 00:46:33;;;;;;;2.42;2.33;;;;;;;0.05;4.25;-4430671.50;5078076;28;20028;-81
2020/12/01 00:48:58;;;;;;;0.30;0.30;;;;;;;0.05;4.25;-4399461.00;5077465;28;20020;-81
2020/12/01 00:51:25;;;;;;;1.38;1.33;;;;;;;0.05;4.25;-4368251.00;5077272;28;20028;-79
2020/12/01 00:53:50;;;;;;;1.48;1.48;;;;;;;0.05;4.26;-4368251.00;5077637;28;20023;-83
2020/12/01 00:56:21;;;;;;;0.90;0.90;;;;;;;0.05;4.26;-4321435.00;5076819;28;20133;-79
2020/12/01 00:58:47;;;;;;;0.30;0.30;;;;;;;0.05;4.26;-4290224.00;5077191;28;20035;-80
2020/12/01 01:01:12;;;;;;;0.40;0.40;;;;;;;0.05;4.26;-4290224.00;5077507;28;20044;-80
2020/12/01 01:03:38;;;;;;;1.27;1.25;;;;;;;0.05;4.26;-4352646.00;5077006;28;20476;-81
2020/12/01 01:06:03;;;;;;;0.40;0.40;;;;;;;0.05;4.26;-4321435.00;5077159;28;20085;-82
2020/12/01 01:08:29;;;;;;;0.68;0.68;;;;;;;0.05;4.26;-4290224.00;5077579;28;20024;-80
2020/12/01 01:10:55;;;;;;;6.15;3.15;;;;;;;0.05;4.27;-4290224.00;5076704;28;20026;-81
2020/12/01 01:13:20;;;;;;;1.55;1.45;;;;;;;0.05;4.27;-4290224.00;5076877;28;20097;-79
2020/12/01 01:15:46;;;;;;;7.93;1.40;;;;;;;0.05;4.27;-4196589.00;5076918;28;20474;-82
2020/12/01 01:18:11;;;;;;;0.73;0.73;;;;;;;0.05;4.27;-4180982.75;5077368;28;20031;-81
2020/12/01 01:20:37;;;;;;;0.40;0.40;;;;;;;0.05;4.27;-4196589.00;5076624;28;20403;-80
2020/12/01 01:23:02;;;;;;;1.15;1.15;;;;;;;0.05;4.27;-4180982.75;5076574;28;20024;-84
2020/12/01 01:25:28;;;;;;;0.85;0.85;;;;;;;0.05;4.27;-4212195.00;5076773;28;20021;-80
2020/12/01 01:27:53;;;;;;;0.30;0.30;;;;;;;0.05;4.27;-4165376.50;5076525;28;20027;-81
2020/12/01 01:30:22;;;;;;;1.00;0.98;;;;;;;0.05;4.27;-4165376.50;5076871;28;20502;-81
2020/12/01 01:32:47;;;;;;;3.03;2.70;;;;;;;0.05;4.26;-4165376.50;5076320;28;20028;-79
2020/12/01 01:35:14;;;;;;;0.70;0.70;;;;;;;0.05;4.27;-4212195.00;5076319;28;20035;-80
2020/12/01 01:37:39;;;;;;;1.25;1.25;;;;;;;0.05;4.26;-4212195.50;5076065;28;20030;-83
2020/12/01 01:40:05;;;;;;;2.90;2.72;;;;;;;0.05;4.27;-4180982.75;5075147;28;20036;-81
2020/12/01 01:42:31;;;;;;;0.40;0.40;;;;;;;0.05;4.27;-4227801.00;5076170;28;20506;-80
2020/12/01 01:44:56;;;;;;;1.52;1.50;;;;;;;0.05;4.27;-4227801.00;5076288;28;20024;-83
2020/12/01 01:47:28;;;;;;;1.30;1.25;;;;;;;0.05;4.26;-4243407.00;5076563;28;20059;-82
2020/12/01 01:50:00;;;;;;;0.50;0.50;;;;;;;0.05;4.26;-4290224.00;5075988;28;20028;-80
2020/12/01 01:52:33;;;;;;;3.28;2.58;;;;;;;0.05;4.26;-4352646.00;5075855;28;20031;-81
2020/12/01 01:55:07;;;;;;;0.90;0.88;;;;;;;0.05;4.26;-4305829.50;5076261;28;20135;-80
2020/12/01 01:57:33;;;;;;;0.60;0.60;;;;;;;0.05;4.26;-4274618.50;5076008;28;20484;-83
2020/12/01 01:59:59;;;;;;;0.30;0.30;;;;;;;0.05;4.26;-4243407.00;5075847;28;20036;-79
2020/12/01 02:02:26;;;;;;;1.15;1.15;;;;;;;0.05;4.26;-4243407.00;5076548;28;20032;-80
2020/12/01 02:04:51;;;;;;;0.40;0.40;;;;;;;0.05;4.26;-4259012.50;5076080;28;20416;-82
2020/12/01 02:07:19;;;;;;;0.82;0.82;;;;;;;0.05;4.26;-4180983.00;5075613;28;20131;-81
2020/12/01 02:09:51;;;;;;;0.40;0.40;;;;;;;0.05;4.25;-4259013.00;5075565;28;20032;-80
2020/12/01 02:12:18;;;;;;;0.75;0.75;;;;;;;0.05;4.26;-4196589.00;5076182;28;20036;-80
2020/12/01 02:14:46;;;;;;;0.57;0.57;;;;;;;0.05;4.25;-4227801.00;5075652;28;20059;-80
2020/12/01 02:17:26;;;;;;;;;;;;;;;0.05;4.25;-4259013.00;5092837;28;20035;-83
2020/12/01 02:19:56;;;;;;;0.50;0.50;;;;;;;0.05;4.26;-4212195.50;5076451;28;19954;-81
2020/12/01 02:22:23;;;;;;;0.40;0.40;;;;;;;0.05;4.26;-4149770.75;5075178;28;20031;-80
2020/12/01 02:24:50;;;;;;;1.27;1.27;;;;;;;0.05;4.26;-4149770.75;5075401;28;20056;-81
2020/12/01 02:27:20;;;;;;;5.25;4.72;;;;;;;0.05;4.26;-4134164.25;5075590;28;20023;-83
2020/12/01 02:29:48;;;;;;;0.75;0.75;;;;;;;0.05;4.26;-4212195.50;5075318;28;20032;-82
2020/12/01 02:32:15;;;;;;;0.47;0.45;;;;;;;0.05;4.26;-4165377.00;5075512;28;20380;-82
2020/12/01 02:34:44;;;;;;;0.73;0.73;;;;;;;0.05;4.26;-4134164.25;5075157;28;20028;-82
2020/12/01 02:37:12;;;;;;;0.85;0.85;;;;;;;0.05;4.26;-4087345.00;5075291;28;20036;-81
2020/12/01 02:39:37;;;;;;;1.73;1.70;;;;;;;0.05;4.26;-4071738.25;5075309;28;20032;-81
2020/12/01 02:42:07;;;;;;;0.60;0.60;;;;;;;0.05;4.26;-4118558.00;5075250;28;20086;-80
2020/12/01 02:44:32;;;;;;;0.40;0.40;;;;;;;0.05;4.26;-4134164.25;5075312;28;20085;-82
2020/12/01 02:50:20;;;;;;;0.85;0.85;;;;;;;0.05;4.26;-4180983.00;5092911;28;20035;-80
2020/12/01 02:56:07;;;;;;;2.55;2.35;;;;;;;0.05;4.25;-4383857.00;5080083;28;20059;-79
2020/12/01 02:58:32;;;;;;;0.38;0.38;;;;;;;0.05;4.25;-4368251.50;5054993;28;20040;-83
2020/12/01 03:00:57;;;;;;;1.13;1.10;;;;;;;0.05;4.25;-4321435.50;5054923;28;20468;-79
2020/12/01 03:03:23;;;;;;;0.60;0.60;;;;;;;0.05;4.24;-4368251.50;5055050;28;20051;-82
2020/12/01 03:05:48;;;;;;;1.17;1.17;;;;;;;0.05;4.24;-4290224.50;5054935;28;20095;-79
2020/12/01 03:08:14;;;;;;;0.85;0.82;;;;;;;0.05;4.25;-4274618.50;5055059;28;20036;-82
2020/12/01 03:10:39;;;;;;;0.80;0.80;;;;;;;0.05;4.25;-4227801.00;5054817;28;20032;-81
2020/12/01 03:13:05;;;;;;;0.50;0.50;;;;;;;0.05;4.25;-4212195.50;5054625;28;20032;-80
2020/12/01 03:15:30;;;;;;;1.00;1.00;;;;;;;0.05;4.25;-4243407.00;5054829;28;20028;-81
2020/12/01 03:17:56;;;;;;;0.30;0.30;;;;;;;0.05;4.25;-4243407.00;5054769;28;20029;-80
2020/12/01 03:20:21;;;;;;;0.50;0.50;;;;;;;0.05;4.25;-4243407.00;5054660;28;20033;-80
2020/12/01 03:22:47;;;;;;;0.40;0.40;;;;;;;0.05;4.25;-4196589.00;5054972;28;20031;-82
2020/12/01 03:25:12;;;;;;;0.95;0.95;;;;;;;0.05;4.25;-4165377.00;5054737;28;20036;-80
2020/12/01 03:27:38;;;;;;;1.63;1.52;;;;;;;0.05;4.25;-4102951.50;5055002;28;20039;-82
2020/12/01 03:30:06;;;;;;;0.40;0.40;;;;;;;0.05;4.25;-4149770.75;5054839;28;20041;-82
2020/12/01 03:32:32;;;;;;;1.35;1.35;;;;;;;0.05;4.25;-3978097.50;5055172;28;20029;-81
2020/12/01 03:34:58;;;;;;;0.52;0.52;;;;;;;0.05;4.26;-3931276.00;5054473;28;20036;-82
2020/12/01 03:37:23;;;;;;;0.45;0.45;;;;;;;0.05;4.26;-3853238.50;5054623;28;20035;-81
2020/12/01 03:39:49;;;;;;;1.95;1.85;;;;;;;0.05;4.26;-3853238.50;5054869;28;20131;-81
2020/12/01 03:42:14;;;;;;;0.50;0.50;;;;;;;0.05;4.26;-3822023.00;5054673;28;20450;-81
2020/12/01 03:44:40;;;;;;;1.38;1.33;;;;;;;0.05;4.26;-3837630.75;5054597;28;20038;-80
2020/12/01 03:47:06;;;;;;;0.50;0.50;;;;;;;0.05;4.26;-3837630.75;5054591;28;20020;-82
2020/12/01 03:49:31;;;;;;;0.65;0.65;;;;;;;0.05;4.26;-3806415.00;5054518;28;20059;-83
2020/12/01 03:51:57;;;;;;;0.82;0.82;;;;;;;0.05;4.26;-3822023.00;5054417;28;20028;-81
2020/12/01 03:54:22;;;;;;;0.38;0.38;;;;;;;0.05;4.25;-3790807.00;5054539;28;20042;-81
2020/12/01 03:56:48;;;;;;;0.50;0.50;;;;;;;0.05;4.25;-3478633.75;5054414;28;20053;-80
2020/12/01 03:59:13;;;;;;;0.80;0.70;;;;;;;0.05;4.26;-3166431.25;5054126;28;20032;-80
2020/12/01 04:01:39;;;;;;;1.20;1.20;;;;;;;0.05;4.26;-3010318.75;5054537;28;20028;-80
2020/12/01 04:04:04;;;;;;;0.40;0.40;;;;;;;0.05;4.27;-2916647.75;5057176;28;20123;-80
2020/12/01 04:06:30;;;;;;;3.30;1.48;;;;;;;0.05;4.28;-2807362.25;5058135;28;20082;-80
2020/12/01 04:08:55;;;;;;;2.55;2.35;;;;;;;0.05;4.28;-2729299.00;5059147;28;20035;-83
2020/12/01 04:11:24;;;;;;;1.40;1.30;;;;;;;0.05;4.28;-2651233.50;5059722;28;20031;-84
2020/12/01 04:13:49;;;;;;;0.52;0.52;;;;;;;0.05;4.29;-2620006.75;5060053;28;20056;-84
2020/12/01 04:16:15;;;;;;;0.80;0.80;;;;;;;0.05;4.29;-2604393.25;5059471;28;20075;-83
2020/12/01 04:18:40;;;;;;;0.55;0.55;;;;;;;0.05;4.29;-2479483.00;5060326;28;20089;-84
2020/12/01 04:21:06;;;;;;;0.65;0.65;;;;;;;0.05;4.29;-2354568.00;5059365;28;20032;-83
2020/12/01 04:23:31;;;;;;;0.85;0.85;;;;;;;0.05;4.29;-2338953.50;5059283;28;20040;-83
2020/12/01 04:25:58;;;;;;;0.70;0.70;;;;;;;0.05;4.29;-2292108.75;5059168;28;20033;-84
2020/12/01 04:28:24;;;;;;;1.08;1.08;;;;;;;0.05;4.30;-2245263.75;5060246;28;20020;-85
2020/12/01 04:30:49;;;;;;;0.40;0.40;;;;;;;0.05;4.30;-2260878.75;5059421;28;20050;-81
2020/12/01 04:33:15;;;;;;;0.40;0.40;;;;;;;0.05;4.30;-2370182.75;5058942;28;20024;-82
2020/12/01 04:35:40;;;;;;;1.17;1.17;;;;;;;0.05;4.29;-2479483.00;5058645;28;20032;-82
2020/12/01 04:38:06;;;;;;;0.88;0.88;;;;;;;0.05;4.29;-2510711.00;5059190;28;20035;-81
2020/12/01 04:40:37;;;;;;;0.40;0.40;;;;;;;0.05;4.29;-2604393.25;5058548;28;20032;-81
2020/12/01 04:43:15;;;;;;;4.32;1.67;;;;;;;0.05;4.30;-2822974.75;5058082;28;20025;-80
2020/12/01 04:45:44;;;;;;;0.40;0.40;;;;;;;0.05;4.30;-2963483.50;5058953;28;20037;-84
2020/12/01 04:48:32;;;;;;;0.40;0.40;;;;;;;0.05;4.29;-3119598.25;5058005;28;20056;-82
2020/12/01 04:51:03;;;;;;;0.95;0.95;;;;;;;0.05;4.29;-3135209.25;5058470;28;20116;-83
2020/12/01 04:53:59;;;;;;;0.73;0.73;;;;;;;0.05;4.28;-3260095.00;5058322;28;20105;-81
2020/12/01 04:56:54;;;;;;;0.30;0.30;;;;;;;0.05;4.28;-3182042.00;5057559;28;20048;-81
2020/12/01 04:59:40;;;;;;;1.95;1.65;;;;;;;0.05;4.28;-3182042.00;5058049;28;20445;-80
2020/12/01 05:02:46;;;;;;;0.77;0.77;;;;;;;0.05;4.27;-3041541.75;5058291;28;20046;-82
2020/12/01 05:05:33;;;;;;;0.70;0.70;;;;;;;0.05;4.27;-3072764.50;5057508;28;20029;-83
2020/12/01 05:08:18;;;;;;;0.65;0.65;;;;;;;0.05;4.27;-2822974.75;5058243;28;20036;-81
2020/12/01 05:10:48;;;;;;;0.55;0.55;;;;;;;0.05;4.28;-2807362.25;5057334;28;20028;-84
2020/12/01 05:13:22;;;;;;;0.98;0.98;;;;;;;0.05;4.28;-2838586.75;5057574;28;20119;-80
2020/12/01 05:15:55;;;;;;;1.15;1.10;;;;;;;0.05;4.29;-2791749.25;5057863;28;20020;-82
2020/12/01 05:18:24;;;;;;;0.63;0.63;;;;;;;0.05;4.29;-2932259.75;5057909;28;20033;-81
2020/12/01 05:20:59;;;;;;;0.30;0.30;;;;;;;0.05;4.30;-2932259.75;5057226;28;20462;-81
2020/12/01 05:23:43;;;;;;;2.25;2.15;;;;;;;0.05;4.30;-2979095.50;5057045;28;20476;-82
2020/12/01 05:26:12;;;;;;;1.75;0.88;;;;;;;0.05;4.30;-3010318.75;5057105;28;20484;-81
2020/12/01 05:28:43;;;;;;;1.00;1.00;;;;;;;0.05;4.30;-3057153.25;5056927;28;20075;-81
2020/12/01 05:31:08;;;;;;;2.67;2.38;;;;;;;0.05;4.29;-3150820.25;5056567;28;20024;-80
2020/12/01 05:33:34;;;;;;;1.38;1.27;;;;;;;0.05;4.29;-3103987.00;5056643;28;20035;-85
2020/12/01 05:36:02;;;;;;;2.47;2.20;;;;;;;0.05;4.29;-3197652.75;5056476;28;20110;-82
2020/12/01 05:38:41;;;;;;;0.50;0.50;;;;;;;0.05;4.29;-3228874.00;5057027;28;20476;-83
2020/12/01 05:41:21;;;;;;;0.50;0.50;;;;;;;0.05;4.28;-3291315.75;5056803;28;20024;-83
2020/12/01 05:43:54;;;;;;;4.88;0.77;;;;;;;0.05;4.28;-3228874.00;5056180;28;20408;-84
2020/12/01 05:46:30;;;;;;;0.57;0.57;;;;;;;0.05;4.28;-3275705.50;5056439;28;20021;-84
2020/12/01 05:48:57;;;;;;;0.50;0.50;;;;;;;0.05;4.28;-3260095.00;5056745;28;20502;-81
2020/12/01 05:51:33;;;;;;;0.40;0.40;;;;;;;0.05;4.28;-3306926.00;5057267;28;20028;-81
2020/12/01 05:53:59;;;;;;;0.75;0.75;;;;;;;0.05;4.28;-3353756.00;5056632;28;20032;-83
2020/12/01 05:56:25;;;;;;;1.15;1.15;;;;;;;0.05;4.28;-3260094.75;5055672;28;20048;-81
2020/12/01 05:59:21;;;;;;;0.40;0.40;;;;;;;0.05;4.27;-3353756.00;5055973;28;20063;-82
2020/12/01 06:01:50;;;;;;;1.48;1.40;;;;;;;0.05;4.28;-3400585.25;5056015;28;20039;-80
2020/12/01 06:04:23;;;;;;;0.60;0.60;;;;;;;0.05;4.27;-3541070.25;5056126;28;20029;-81
2020/12/01 06:07:16;;;;;;;0.63;0.63;;;;;;;0.05;4.26;-3572288.50;5055959;28;20028;-82
2020/12/01 06:10:06;;;;;;;1.60;1.55;;;;;;;0.05;4.26;-3743983.00;5056365;28;20028;-84
2020/12/01 06:12:31;;;;;;;3.47;2.20;;;;;;;0.05;4.25;-3837630.25;5056306;28;20036;-85
2020/12/01 06:15:00;;;;;;;3.80;3.20;;;;;;;0.05;4.25;-3931275.50;5056159;28;20035;-85
2020/12/01 06:17:50;;;;;;;1.63;1.58;;;;;;;0.05;4.24;-3978097.00;5055814;28;20033;-82
2020/12/01 06:20:24;;;;;;;1.95;1.85;;;;;;;0.05;4.24;-4165377.00;5055706;28;20028;-82
2020/12/01 06:23:27;;;;;;;1.10;1.10;;;;;;;0.05;4.24;-4212195.00;5055971;28;20119;-81
2020/12/01 06:26:31;;;;;;;0.40;0.40;;;;;;;0.05;4.24;-4305829.50;5054979;28;20032;-82
2020/12/01 06:29:34;;;;;;;0.90;0.90;;;;;;;0.05;4.23;-4399461.50;5055434;28;20028;-82
2020/12/01 06:32:18;;;;;;;0.47;0.47;;;;;;;0.05;4.23;-4571113.00;5056512;28;20429;-82
2020/12/01 06:35:15;;;;;;;10.93;1.33;;;;;;;0.05;4.23;-4586717.50;5055628;28;20025;-86
2020/12/01 06:38:11;;;;;;;3.03;1.70;;;;;;;0.05;4.22;-4727153.00;5057162;28;20033;-81
2020/12/01 06:40:38;;;;;;;1.02;1.02;;;;;;;0.05;4.22;-4742756.50;5055065;28;20504;-85
2020/12/01 06:43:26;;;;;;;1.70;1.60;;;;;;;0.05;4.22;-4649134.00;5055077;28;20090;-83
2020/12/01 06:45:55;;;;;;;0.30;0.30;;;;;;;0.05;4.22;-4742756.50;5055273;28;20031;-83
2020/12/01 06:48:31;;;;;;;0.73;0.73;;;;;;;0.05;4.21;-4976800.00;5055170;28;20505;-82
2020/12/01 06:50:59;;;;;;;1.17;1.17;;;;;;;0.05;4.21;-5008005.00;5055417;28;20487;-80
2020/12/01 06:53:35;;;;;;;0.30;0.30;;;;;;;0.05;4.21;-5117219.00;5055305;28;20025;-80
2020/12/01 06:56:17;;;;;;;0.77;0.77;;;;;;;0.05;4.21;-5257632.50;5054508;28;20056;-82
2020/12/01 06:58:49;;;;;;;1.45;1.35;;;;;;;0.05;4.20;-5382439.00;5055155;28;20040;-82
2020/12/01 07:01:18;;;;;;;0.98;0.98;;;;;;;0.05;4.20;-5366838.00;5056323;28;20032;-86
2020/12/01 07:03:46;;;;;;;17.95;2.00;;;;;;;0.05;4.19;-5366838.50;5074502;28;20535;-83
2020/12/01 07:06:41;;;;;;;0.40;0.40;;;;;;;0.05;4.19;-5491640.50;5055255;28;20472;-83
2020/12/01 07:09:22;;;;;;;0.43;0.43;;;;;;;0.05;4.19;-5444840.50;5040251;28;20036;-84
2020/12/01 07:12:02;;;;;;;1.80;1.70;;;;;;;0.05;4.18;-5663236.00;5055103;28;20503;-81
2020/12/01 07:14:50;;;;;;;0.88;0.88;;;;;;;0.05;4.18;-5850421.50;5055313;28;20025;-82
2020/12/01 07:17:19;;;;;;;1.88;1.77;;;;;;;0.05;4.17;-6146777.00;5055623;28;20032;-81
2020/12/01 07:19:55;;;;;;;2.63;2.42;;;;;;;0.05;4.16;-6318338.50;5056125;28;20391;-84
2020/12/01 07:26:03;;;;;;;2.22;1.58;;;;;;;0.05;4.14;-6739409.00;5073663;28;20113;-81
2020/12/01 07:28:36;;;;;;;1.83;1.73;;;;;;;0.05;4.14;-6957720.50;5056038;28;20028;-83
2020/12/01 07:31:18;;;;;;;1.38;1.27;;;;;;;0.05;4.13;-6988906.00;5055416;28;20033;-81
2020/12/01 07:33:56;;;;;;;2.30;2.08;;;;;;;0.05;4.14;-6957720.50;5055372;28;20555;-84
2020/12/01 07:36:35;;;;;;;6.38;1.95;;;;;;;0.05;4.14;-7020092.00;5054937;28;20557;-83
2020/12/01 07:39:13;;;;;;;1.95;1.83;;;;;;;0.05;4.14;-6786191.00;5057350;28;20032;-82
2020/12/01 07:41:47;;;;;;;2.30;2.17;;;;;;;0.05;4.14;-7004500.00;5058432;28;20566;-85
2020/12/01 07:44:17;;;;;;;1.45;1.40;;;;;;;0.05;4.14;-6988907.00;5058463;28;20503;-83
2020/12/01 07:49:21;;;;;;;8.82;7.15;;;;;;;0.05;4.14;-7035685.00;5076540;28;20066;-81
2020/12/01 07:51:47;;;;;;;2.90;2.70;;;;;;;0.05;4.14;-7176017.50;5059060;28;20032;-81
2020/12/01 07:54:25;;;;;;;2.92;2.40;;;;;;;0.05;4.15;-7222793.50;5058222;28;20115;-81
2020/12/01 07:56:51;;;;;;;;;;;;;;;0.05;4.14;-7378709.50;5058845;28;20063;-80
2020/12/01 07:59:17;;;;;;;1.88;1.55;;;;;;;0.05;4.14;-7519027.50;5058104;28;19912;-80
2020/12/01 08:01:44;;;;;;;3.90;3.60;;;;;;;0.05;4.13;-7690519.00;5058240;28;20395;-83
2020/12/01 08:04:27;;;;;;;1.88;1.80;;;;;;;0.05;4.12;-7815234.50;5057849;28;20073;-80
2020/12/01 08:07:02;;;;;;;1.08;1.08;;;;;;;0.05;4.12;-7877590.50;5059094;28;20031;-81
2020/12/01 08:09:28;;;;;;;2.60;2.45;;;;;;;0.05;4.12;-7924357.00;5059040;28;20029;-81
2020/12/01 08:11:58;;;;;;;1.88;1.77;;;;;;;0.05;4.11;-7971123.00;5058325;28;20058;-80
2020/12/01 08:14:23;;;;;;;1.85;0.65;;;;;;;0.05;4.11;-8049064.00;5058242;28;20102;-80
2020/12/01 08:17:10;;;;;;;1.55;1.45;;;;;;;0.05;4.12;-8033476.00;5057825;28;20488;-82
2020/12/01 08:19:36;;;;;;;0.55;0.55;;;;;;;0.05;4.12;-8017888.00;5058235;28;20043;-82
2020/12/01 08:22:05;;;;;;;3.53;3.25;;;;;;;0.05;4.11;-8002299.50;5057584;28;20111;-79
2020/12/01 08:24:34;;;;;;;0.77;0.77;;;;;;;0.05;4.12;-8049064.00;5057948;28;20553;-81
2020/12/01 08:27:24;;;;;;;1.48;1.48;;;;;;;0.05;4.11;-8142591.50;5057725;28;20094;-82
2020/12/01 08:29:53;;;;;;;0.55;0.55;;;;;;;0.05;4.11;-8220529.00;5057888;28;20056;-80
2020/12/01 08:32:34;;;;;;;1.98;1.45;;;;;;;0.05;4.10;-8267290.00;5058356;28;20425;-80
2020/12/01 08:35:35;;;;;;;0.98;0.98;;;;;;;0.05;4.11;-8267290.00;5058113;28;20052;-81
2020/12/01 08:38:24;;;;;;;1.60;1.20;;;;;;;0.05;4.11;8369645.00;5057192;28;20032;-82
2020/12/01 08:41:02;;;;;;;0.55;0.55;;;;;;;0.05;4.10;8244956.00;5073636;28;20039;-82
2020/12/01 08:46:26;;;;;;;2.20;1.85;;;;;;;0.05;4.10;-8376398.00;5075874;28;20032;-81
2020/12/01 09:01:54;;;;;;;4.85;1.33;;;;;;;0.05;4.08;8057931.50;5077691;28;20047;-86
2020/12/01 09:04:26;;;;;;;1.67;1.48;;;;;;;0.05;4.08;8244956.00;5061271;28;20020;-83
2020/12/01 09:10:30;;;;;;;2.40;2.10;;;;;;;0.05;4.08;8057931.00;5047653;28;20060;-89
2020/12/01 09:16:58;;;;;;;1.38;1.35;;;;;;;0.05;4.08;-8376398.50;5001306;28;20104;-90
2020/12/01 09:26:52;;;;;;;1.00;1.00;;;;;;;0.05;4.07;7746247.00;5018937;28;20023;-92
2020/12/01 09:32:40;;;;;;;1.25;1.17;;;;;;;0.05;4.06;7980007.00;5009436;28;20056;-85
2020/12/01 09:37:33;;;;;;;;;;;;;;;0.05;4.07;7808581.50;5112591;28;20047;-92
2020/12/01 09:39:59;;;;;;;0.75;0.75;;;;;;;0.05;4.07;7668330.00;5097389;28;19912;-96
2020/12/01 09:42:31;;;;;;;2.33;2.22;;;;;;;0.05;4.06;7808581.50;5096736;28;20410;-96
2020/12/01 09:47:37;;;;;;;2.25;2.03;;;;;;;0.05;4.08;7512502.50;5114698;28;20031;-88
2020/12/01 09:50:08;;;;;;;1.40;1.30;;;;;;;0.05;4.07;7341100.00;5092874;28;20119;-91
2020/12/01 09:52:48;;;;;;;3.30;1.40;;;;;;;0.05;4.07;7278774.50;5092743;28;20044;-90
2020/12/01 09:56:04;;;;;;;1.63;1.48;;;;;;;0.05;4.06;7185287.50;5075680;28;20047;-94
2020/12/01 10:03:43;;;;;;;0.75;0.75;;;;;;;0.05;4.05;7200868.50;5092059;28;20036;-92
2020/12/01 10:08:34;;;;;;;3.65;3.35;;;;;;;0.05;4.04;7107384.00;5094401;28;20031;-91
2020/12/01 10:11:08;;;;;;;1.33;1.23;;;;;;;0.05;4.04;7107384.00;5076216;28;20085;-90
2020/12/01 10:27:42;;;;;;;1.95;1.85;;;;;;;0.05;4.03;6873684.50;5114569;28;20034;-87
2020/12/01 10:37:31;;;;;;;0.70;0.70;;;;;;;0.05;4.00;6733473.00;5114777;28;20062;-90
2020/12/01 10:39:57;;;;;;;1.20;1.20;;;;;;;0.05;4.01;6811368.00;5095644;28;20036;-91
2020/12/01 10:42:22;;;;;;;1.30;1.30;;;;;;;0.05;4.02;6562111.00;5095757;28;20460;-93
2020/12/01 10:44:48;;;;;;;2.05;1.63;;;;;;;0.05;4.03;6437489.00;5113781;28;20028;-93
2020/12/01 10:47:13;;;;;;;0.90;0.90;;;;;;;0.05;4.02;6671158.50;5095676;28;20023;-91
2020/12/01 10:49:39;;;;;;;0.57;0.57;;;;;;;0.05;4.03;6671158.50;5095894;28;20065;-94
2020/12/01 10:52:05;;;;;;;3.13;0.75;;;;;;;0.05;4.03;6530955.00;5095710;28;20032;-84
2020/12/01 10:54:31;;;;;;;3.83;1.48;;;;;;;0.05;4.03;6421912.00;5095769;28;20031;-88
2020/12/01 10:56:56;;;;;;;1.35;1.35;;;;;;;0.05;4.03;6406334.50;5095462;28;20063;-86
2020/12/01 10:59:23;;;;;;;0.57;0.57;;;;;;;0.05;4.03;6437489.00;5095598;28;20096;-86
2020/12/01 11:01:49;;;;;;;1.00;1.00;;;;;;;0.05;4.03;6375180.00;5095313;28;20036;-89
2020/12/01 11:04:15;;;;;;;1.73;1.65;;;;;;;0.05;4.03;6344026.00;5095688;28;20513;-86
2020/12/01 11:06:41;;;;;;;0.90;0.90;;;;;;;0.05;4.02;6234989.00;5095339;28;20032;-86
2020/12/01 11:09:08;;;;;;;2.90;2.55;;;;;;;0.05;4.02;6094804.00;5095413;28;20027;-86
2020/12/01 11:11:33;;;;;;;3.80;1.38;;;;;;;0.05;4.02;5985775.50;5096250;28;20031;-86
2020/12/01 11:14:00;;;;;;;1.60;1.50;;;;;;;0.05;4.02;5954625.00;5099622;28;20034;-85
2020/12/01 11:16:25;;;;;;;1.00;1.00;;;;;;;0.05;4.01;5939050.00;5099366;28;20024;-88
2020/12/01 11:18:51;;;;;;;1.83;1.73;;;;;;;0.05;4.01;5970200.00;5099691;28;20027;-86
2020/12/01 11:21:16;;;;;;;1.20;1.17;;;;;;;0.05;4.02;6094804.00;5099500;28;20065;-85
2020/12/01 11:23:42;;;;;;;2.08;1.75;;;;;;;0.05;4.02;6063652.50;5099411;28;20053;-88
2020/12/01 11:26:11;;;;;;;0.77;0.77;;;;;;;0.05;4.03;6048077.00;5099790;28;20028;-90
2020/12/01 11:28:37;;;;;;;0.52;0.52;;;;;;;0.05;4.02;5876749.50;5098130;28;20024;-88
2020/12/01 11:31:04;;;;;;;1.40;1.15;;;;;;;0.05;4.02;5845600.50;5098222;28;20038;-82
2020/12/01 11:33:29;;;;;;;0.40;0.40;;;;;;;0.05;4.01;6032501.00;5098668;28;20471;-87
2020/12/01 11:35:55;;;;;;;0.57;0.57;;;;;;;0.05;4.01;6048077.00;5095196;28;20085;-85
2020/12/01 11:38:20;;;;;;;0.90;0.90;;;;;;;0.05;4.02;6048077.00;5095388;28;20024;-84
2020/12/01 11:40:46;;;;;;;0.68;0.68;;;;;;;0.05;4.02;5954624.50;5078051;28;20065;-83
2020/12/01 11:43:11;;;;;;;1.85;1.75;;;;;;;0.05;4.01;6032501.00;5094946;28;20518;-84
2020/12/01 11:45:37;;;;;;;1.77;1.42;;;;;;;0.05;4.01;5954624.50;5094563;28;20070;-88
2020/12/01 11:48:02;;;;;;;1.20;1.20;;;;;;;0.05;4.03;6063652.50;5078145;28;20028;-85
2020/12/01 11:50:28;;;;;;;0.20;0.20;;;;;;;0.05;4.03;6172684.00;5096425;28;20504;-87
2020/12/01 11:52:53;;;;;;;0.85;0.85;;;;;;;0.05;4.03;6157107.50;5095317;28;20031;-87
2020/12/01 11:55:19;;;;;;;0.65;0.65;;;;;;;0.05;4.04;6188260.00;5078141;28;20036;-89
2020/12/01 11:57:44;;;;;;;0.65;0.65;;;;;;;0.05;4.04;6234989.00;5095003;28;20139;-86
2020/12/01 12:00:17;;;;;;;0.85;0.85;;;;;;;0.05;4.04;6328448.50;5095114;28;20032;-88
2020/12/01 12:02:42;;;;;;;1.10;0.95;;;;;;;0.05;4.04;6266141.00;5095472;28;20111;-89
2020/12/01 12:05:08;;;;;;;1.17;1.17;;;;;;;0.05;4.04;6203835.50;5078162;28;20566;-86
2020/12/01 12:07:33;;;;;;;0.40;0.40;;;;;;;0.05;4.05;6250564.50;5094428;28;20034;-85
2020/12/01 12:09:58;;;;;;;4.25;1.95;;;;;;;0.05;4.03;6266141.50;5095111;28;20038;-89
2020/12/01 12:12:24;;;;;;;0.50;0.50;;;;;;;0.05;4.02;6172683.50;5094891;28;20020;-86
2020/12/01 12:14:50;;;;;;;1.00;1.00;;;;;;;0.05;4.02;6094804.00;5094667;28;20032;-86
2020/12/01 12:17:15;;;;;;;0.50;0.50;;;;;;;0.05;4.02;6001350.50;5094539;28;20490;-87
2020/12/01 12:19:40;;;;;;;1.20;1.15;;;;;;;0.05;4.02;5970200.00;5095659;28;20035;-87
2020/12/01 12:22:06;;;;;;;0.40;0.40;;;;;;;0.05;4.03;6079228.00;5094705;28;20077;-85
2020/12/01 12:24:31;;;;;;;1.42;1.42;;;;;;;0.05;4.02;6063652.50;5076888;28;20036;-84
2020/12/01 12:26:57;;;;;;;2.25;2.05;;;;;;;0.05;4.02;6032501.00;5077972;28;20427;-84
2020/12/01 12:29:22;;;;;;;1.20;0.52;;;;;;;0.05;4.03;6032501.00;5095076;28;20084;-87
2020/12/01 12:31:48;;;;;;;2.42;2.22;;;;;;;0.05;4.02;5861175.00;5094009;28;20036;-87
2020/12/01 12:34:13;;;;;;;10.35;2.58;;;;;;;0.05;4.03;5970200.00;5094020;28;20392;-88
2020/12/01 12:36:38;;;;;;;0.20;0.20;;;;;;;0.05;4.04;6079228.00;5093940;28;20056;-86
2020/12/01 12:39:04;;;;;;;6.88;1.33;;;;;;;0.05;4.04;6048076.50;5094411;28;20028;-85
2020/12/01 12:41:29;;;;;;;0.57;0.57;;;;;;;0.05;4.03;6110379.00;5076856;28;20119;-92
2020/12/01 12:43:55;;;;;;;0.93;0.93;;;;;;;0.05;4.03;6048077.00;5093525;28;20119;-86
2020/12/01 12:46:20;;;;;;;1.33;1.27;;;;;;;0.05;4.02;5985775.00;5094406;28;20020;-86
2020/12/01 12:48:46;;;;;;;0.30;0.30;;;;;;;0.05;4.03;6016926.00;5095319;28;20467;-87
2020/12/01 12:51:11;;;;;;;0.38;0.38;;;;;;;0.05;4.03;6032501.00;5077149;28;20114;-86
2020/12/01 12:53:37;;;;;;;1.15;1.10;;;;;;;0.05;4.03;6110379.50;5076984;28;20035;-87
2020/12/01 12:56:02;;;;;;;2.60;2.42;;;;;;;0.05;4.04;6094803.00;5093924;28;20407;-90
2020/12/01 12:58:28;;;;;;;3.80;2.00;;;;;;;0.05;4.04;6141530.50;5093819;28;20500;-89
2020/12/01 13:00:53;;;;;;;0.60;0.60;;;;;;;0.05;4.05;6234988.00;5093667;28;20032;-87
2020/12/01 13:03:19;;;;;;;0.95;0.95;;;;;;;0.05;4.05;6281718.00;5076713;28;20419;-86